Flight Track Log - Related Links

Times and Time Zones

All times are in EDT time to prevent confusion due to time zone crossing. See the SWA407 flight status page for this flight to view local times or setup timezone preferences in your user account.

Time Position Orientation Groundspeed Altitude Reporting Facility
EDT Latitude Longitude Course Direction KTS MPH feet Rate Location/Type
Tue 02:09:37 AM 32.7911 -117.2911 307° West 214 246 8,300  Level Los Angeles Center
Tue 02:10:38 AM 32.8417 -117.3758 305° West 257 296 14,100 5,115 Climbing Los Angeles Center
Tue 02:11:39 AM 32.9008 -117.4661 308° West 284 327 18,700 3,787 Climbing Los Angeles Center
Tue 02:12:40 AM 32.9811 -117.5158 333° Northwest 330 380 21,800 2,754 Climbing Los Angeles Center
Tue 02:13:41 AM 33.0889 -117.5411 349° North 380 437 24,300 2,678 Climbing Los Angeles Center
Tue 02:14:41 AM 33.2047 -117.5694 348° North 415 478 27,200 2,331 Climbing Los Angeles Center
Tue 02:15:42 AM 33.3244 -117.5975 349° North 433 498 29,000 885 Climbing Los Angeles Center
Tue 02:16:43 AM 33.4428 -117.6267 348° North 435 501 29,000  Level Los Angeles Center
Tue 02:17:43 AM 33.5383 -117.6078 North 444 511 29,000  Level Los Angeles Center
Tue 02:18:44 AM 33.6717 -117.5122 31° Northeast 465 535 29,000  Level Los Angeles Center
Tue 02:20:00 AM 33.7695 -117.4198 40° Northeast  Level Estimated
Tue 02:20:46 AM 33.8936 -117.3542 40° Northeast 468 539 29,000  Level Los Angeles Center
Tue 02:21:47 AM 34.0042 -117.2742 31° Northeast 466 536 29,000  Level Los Angeles Center
Tue 02:23:00 AM 34.1175 -117.2284 19° North  Level FlightAware Approximate
Tue 02:24:49 AM 34.3439 -117.0283 32° Northeast 472 543 29,000  Level Los Angeles Center
Tue 02:25:50 AM 34.4558 -116.9475 31° Northeast 472 543 29,000  Level Los Angeles Center
Tue 02:26:50 AM 34.5911 -116.8489 31° Northeast 475 547 29,000  Level Los Angeles Center
Tue 02:27:51 AM 34.7017 -116.7681 31° Northeast 470 541 29,000  Level Los Angeles Center
Tue 02:28:52 AM 34.8119 -116.6875 31° Northeast 465 535 29,000  Level Los Angeles Center
Tue 02:29:52 AM 34.9236 -116.6042 31° Northeast 470 541 29,000  Level Los Angeles Center
Tue 02:30:00 AM 34.6408 -116.6880 32° Northeast  Level Estimated
Tue 02:30:53 AM 35.0294 -116.4953 40° Northeast 491 565 29,000  Level Los Angeles Center
Tue 02:31:54 AM 35.1231 -116.3767 46° Northeast 494 568 29,000 -347 Level Los Angeles Center
Tue 02:32:54 AM 35.2189 -116.2569 46° Northeast 494 568 28,300 -1,636 Descending Los Angeles Center
Tue 02:33:55 AM 35.3158 -116.1333 46° Northeast 499 574 25,700 -2,902 Descending Los Angeles Center
Tue 02:34:56 AM 35.4111 -116.0136 46° Northeast 498 573 22,400 -3,124 Descending Los Angeles Center
Tue 02:35:56 AM 35.5031 -115.9000 45° Northeast 484 557 19,400 -3,614 Descending Los Angeles Center
Tue 02:36:24 AM 35.5544 -115.8328 47° Northeast 464 534 17,100 -2,852 Descending Los Angeles Center
Tue 02:36:57 AM 35.5706 -115.8122 46° Northeast 459 528 16,500 -3,061 Descending Los Angeles Center
Tue 02:37:13 AM 35.6183 -115.7489 47° Northeast 448 516 14,600 -3,344 Descending Los Angeles Center
Tue 02:37:58 AM 35.6731 -115.6842 44° Northeast 444 511 13,100 -1,574 Descending Los Angeles Center
Tue 02:38:14 AM 35.7056 -115.6417 47° Northeast 426 490 13,000 -100 Descending Los Angeles Center
Tue 02:38:58 AM 35.7639 -115.5783 41° Northeast 392 451 13,000  Level Los Angeles Center
Tue 02:39:14 AM 35.7858 -115.5733 10° North 337 388 13,000  Level Los Angeles Center
Tue 02:39:59 AM 35.8464 -115.5689 North 296 341 13,000  Level Los Angeles Center
Tue 02:40:15 AM 35.8667 -115.5686 North 290 334 13,000 -492 Level Los Angeles Center
Tue 02:41:00 AM 35.9292 -115.5650 North 296 341 12,500 -787 Descending Los Angeles Center
Tue 02:41:16 AM 35.9506 -115.5572 16° North 294 338 12,200 -1,100 Descending Los Angeles Center
Tue 02:42:00 AM 35.9917 -115.4964 50° Northeast 309 356 11,400 -1,200 Descending Los Angeles Center
Tue 02:42:16 AM 36.0008 -115.4692 67° East 321 369 11,000 -885 Descending Los Angeles Center
Tue 02:43:01 AM 36.0250 -115.3922 69° East 326 375 10,500 -787 Descending Los Angeles Center
Tue 02:43:17 AM 36.0294 -115.3617 80° East 329 379 10,200 -1,279 Descending Los Angeles Center
Tue 02:44:02 AM 36.0244 -115.2828 94° East 330 380 9,200 -1,300 Descending Los Angeles Center
Tue 02:44:17 AM 36.0217 -115.2553 97° East 312 359 8,900 -1,200 Descending Los Angeles Center
Tue 02:45:02 AM 36.0178 -115.1819 94° East 305 351 8,000 -885 Descending Los Angeles Center
Tue 02:45:18 AM 36.0158 -115.1589 96° East 280 322 8,000  Level Los Angeles Center
Tue 02:46:03 AM 36.0122 -115.0994 94° East 256 295 8,000  Level Los Angeles Center
Tue 02:46:19 AM 36.0097 -115.0811 100° East 224 258 8,000 -900 Level Los Angeles Center
Tue 02:47:03 AM 36.0067 -115.0283 94° East 219 252 7,100 -1,400 Descending Los Angeles Center
Tue 02:47:19 AM 36.0061 -115.0053 92° East 214 246 6,600 -1,082 Descending Los Angeles Center
Tue 02:48:04 AM 36.0031 -114.9542 94° East 216 249 6,000 -984 Descending Los Angeles Center
Tue 02:48:20 AM 36.0022 -114.9292 92° East 219 252 5,600 -492 Descending Los Angeles Center
Tue 02:49:05 AM 36.0003 -114.8803 93° East 216 249 5,500 -100 Descending Los Angeles Center
Tue 02:49:20 AM 36.0169 -114.8686 30° Northeast 216 249 5,500 -200 Level Los Angeles Center
Tue 02:50:05 AM 36.0494 -114.8697 358° North 204 235 5,300 -590 Descending Los Angeles Center
Tue 02:50:21 AM 36.0539 -114.8881 287° West 154 177 4,900 -393 Descending Los Angeles Center
Tue 02:51:06 AM 36.0606 -114.9139 288° West 156 180 4,900  Level Los Angeles Center
Tue 02:51:22 AM 36.0681 -114.9339 295° West 148 170 4,900 -200 Level Los Angeles Center
Tue 02:52:06 AM 36.0764 -114.9586 293° West 147 169 4,700 -400 Descending Los Angeles Center
Tue 02:52:22 AM 36.0744 -114.9719 260° West 121 139 4,500 -590 Descending Los Angeles Center
Tue 02:53:07 AM 36.0747 -114.9961 271° West 124 143 4,100 -590 Descending Los Angeles Center
Tue 02:53:23 AM 36.0744 -115.0117 269° West 108 124 3,900 -500 Descending Los Angeles Center
Tue 02:54:07 AM 36.0736 -115.0317 267° West 112 129 3,600 -500 Descending Los Angeles Center
Tue 02:54:23 AM 36.0733 -115.0467 269° West 99 114 3,400 -590 Descending Los Angeles Center
Tue 02:55:08 AM 36.0736 -115.0667 271° West 106 122 3,000 -689 Descending Los Angeles Center
Tue 02:55:24 AM 36.0731 -115.0842 268° West 105 121 2,700 -689 Descending Los Angeles Center
Tue 02:56:09 AM 36.0736 -115.1050 272° West 107 123 2,300 -533 Descending Los Angeles Center
Tue 02:58:00 AM 36.0667 -115.1500 270° West  Level FlightAware Approximate

Login

Don't have an account? Register now (free) for customized features, flight alerts, and more!